createdAt,value
2023-03-08T00:02:09.373Z,94.00
2023-03-08T00:04:36.192Z,94.00
2023-03-08T00:07:03.147Z,94.10
2023-03-08T00:09:30.069Z,94.50
2023-03-08T00:11:56.792Z,94.30
2023-03-08T00:14:23.971Z,94.40
2023-03-08T00:16:50.861Z,94.30
2023-03-08T00:19:17.633Z,94.30
2023-03-08T00:21:44.426Z,94.30
2023-03-08T00:24:12.756Z,94.30
2023-03-08T00:26:39.625Z,94.10
2023-03-08T00:29:06.647Z,94.20
2023-03-08T00:31:33.577Z,94.30
2023-03-08T00:34:00.383Z,94.10
2023-03-08T00:36:27.502Z,94.30
2023-03-08T00:38:56.322Z,94.30
2023-03-08T00:41:23.712Z,94.60
2023-03-08T00:43:50.888Z,94.60
2023-03-08T00:46:17.765Z,94.80
2023-03-08T00:48:47.909Z,94.70
2023-03-08T00:51:17.031Z,94.90
2023-03-08T00:53:44.095Z,95.20
2023-03-08T00:56:11.273Z,95.50
2023-03-08T00:58:39.530Z,95.40
2023-03-08T01:01:07.930Z,95.30
2023-03-08T01:03:35.237Z,95.70
2023-03-08T01:06:10.205Z,95.90
2023-03-08T01:08:37.469Z,96.00
2023-03-08T01:11:04.421Z,96.30
2023-03-08T01:13:34.115Z,96.20
2023-03-08T01:16:01.988Z,96.20
2023-03-08T01:18:28.939Z,96.30
2023-03-08T01:21:03.921Z,96.70
2023-03-08T01:23:31.459Z,96.90
2023-03-08T01:26:03.711Z,97.10
2023-03-08T01:28:30.651Z,97.30
2023-03-08T01:31:10.472Z,97.60
2023-03-08T01:33:37.859Z,97.50
2023-03-08T01:36:06.407Z,97.90
2023-03-08T01:38:33.302Z,97.70
2023-03-08T01:41:01.936Z,97.70
2023-03-08T01:43:37.184Z,97.80
2023-03-08T01:46:18.648Z,97.80
2023-03-08T01:48:54.489Z,97.90
2023-03-08T01:51:30.322Z,97.90
2023-03-08T01:53:59.891Z,98.10
2023-03-08T01:56:27.261Z,98.10
2023-03-08T01:58:54.555Z,98.50
2023-03-08T02:01:21.800Z,98.80
2023-03-08T02:03:49.011Z,98.60
2023-03-08T02:06:17.967Z,98.50
2023-03-08T02:08:45.224Z,98.40
2023-03-08T02:11:14.146Z,98.60
2023-03-08T02:13:41.942Z,98.70
2023-03-08T02:16:12.258Z,98.80
2023-03-08T02:18:50.196Z,98.80
2023-03-08T02:21:17.114Z,98.60
2023-03-08T02:23:43.956Z,98.70
2023-03-08T02:26:10.918Z,98.60
2023-03-08T02:28:38.712Z,98.60
2023-03-08T02:31:05.748Z,98.70
2023-03-08T02:33:33.844Z,98.90
2023-03-08T02:36:02.944Z,98.80
2023-03-08T02:38:30.435Z,99.00
2023-03-08T02:40:57.580Z,99.10
2023-03-08T02:43:25.631Z,98.90
2023-03-08T02:45:53.020Z,98.90
2023-03-08T02:48:20.090Z,98.80
2023-03-08T02:50:46.921Z,98.90
2023-03-08T02:53:13.720Z,98.90
2023-03-08T02:55:40.746Z,99.40
2023-03-08T02:58:09.783Z,99.40
2023-03-08T03:00:36.964Z,99.60
2023-03-08T03:03:03.902Z,99.70
2023-03-08T03:05:30.693Z,99.80
2023-03-08T03:07:58.737Z,99.80
2023-03-08T03:10:25.814Z,99.90
2023-03-08T03:12:52.705Z,100.00
2023-03-08T03:15:19.509Z,100.00
2023-03-08T03:17:46.414Z,100.00
2023-03-08T03:20:13.629Z,100.00
2023-03-08T03:22:40.356Z,100.00
2023-03-08T03:25:07.656Z,100.00
2023-03-08T03:27:34.496Z,100.00
2023-03-08T03:30:01.599Z,100.00
2023-03-08T03:32:28.567Z,100.00
2023-03-08T03:34:55.337Z,100.00
2023-03-08T03:37:22.551Z,100.00
2023-03-08T03:39:49.401Z,100.00
2023-03-08T03:42:17.881Z,100.00
2023-03-08T03:44:44.893Z,100.00
2023-03-08T03:47:11.725Z,100.00
2023-03-08T03:49:38.428Z,100.00
2023-03-08T03:52:05.511Z,100.00
2023-03-08T03:54:35.476Z,100.00
2023-03-08T03:57:02.806Z,100.00
2023-03-08T03:59:29.636Z,100.00
2023-03-08T04:01:56.427Z,100.00
2023-03-08T04:04:23.346Z,100.00
2023-03-08T04:06:50.125Z,100.00
2023-03-08T04:09:18.296Z,100.00
2023-03-08T04:11:45.137Z,100.00
2023-03-08T04:14:12.079Z,100.00
2023-03-08T04:16:40.115Z,100.00
2023-03-08T04:19:15.961Z,100.00
2023-03-08T04:21:42.846Z,100.00
2023-03-08T04:24:09.758Z,100.00
2023-03-08T04:26:38.280Z,100.00
2023-03-08T04:29:06.450Z,100.00
2023-03-08T04:31:35.284Z,100.00
2023-03-08T04:34:07.392Z,100.00
2023-03-08T04:36:34.585Z,100.00
2023-03-08T04:39:01.409Z,100.00
2023-03-08T04:41:28.265Z,100.00
2023-03-08T04:43:57.048Z,100.00
2023-03-08T04:46:27.546Z,100.00
2023-03-08T04:48:55.873Z,100.00
2023-03-08T04:51:25.061Z,100.00
2023-03-08T04:53:51.991Z,100.00
2023-03-08T04:56:19.460Z,100.00
2023-03-08T04:58:46.697Z,100.00
2023-03-08T05:01:22.965Z,100.00
2023-03-08T05:03:50.114Z,100.00
2023-03-08T05:06:17.702Z,100.00
2023-03-08T05:08:44.907Z,100.00
2023-03-08T05:11:19.625Z,100.00
2023-03-08T05:13:46.874Z,100.00
2023-03-08T05:16:13.844Z,100.00
2023-03-08T05:18:41.102Z,100.00
2023-03-08T05:21:12.026Z,100.00
2023-03-08T05:23:39.048Z,100.00
2023-03-08T05:26:10.782Z,100.00
2023-03-08T05:28:39.516Z,100.00
2023-03-08T05:31:10.599Z,100.00
2023-03-08T05:33:37.989Z,100.00
2023-03-08T05:36:06.519Z,100.00
2023-03-08T05:38:33.917Z,100.00
2023-03-08T05:41:02.317Z,100.00
2023-03-08T05:43:29.119Z,100.00
2023-03-08T05:46:02.587Z,100.00
2023-03-08T05:48:29.950Z,100.00
2023-03-08T05:50:56.878Z,100.00
2023-03-08T05:53:23.777Z,100.00
2023-03-08T05:55:50.535Z,100.00
2023-03-08T05:58:17.430Z,100.00
2023-03-08T06:00:44.264Z,100.00
2023-03-08T06:03:11.036Z,100.00
2023-03-08T06:05:38.105Z,100.00
2023-03-08T06:08:05.592Z,100.00
2023-03-08T06:10:32.754Z,100.00
2023-03-08T06:12:59.662Z,100.00
2023-03-08T06:15:26.437Z,100.00
2023-03-08T06:17:54.171Z,99.90
2023-03-08T06:20:21.003Z,99.50
2023-03-08T06:22:47.996Z,99.60
2023-03-08T06:25:14.846Z,99.60
2023-03-08T06:27:41.615Z,99.20
2023-03-08T06:30:09.127Z,98.80
2023-03-08T06:32:38.528Z,99.00
2023-03-08T06:35:05.849Z,99.00
2023-03-08T06:37:34.425Z,98.50
2023-03-08T06:40:02.017Z,98.20
2023-03-08T06:42:40.599Z,98.20
2023-03-08T06:45:09.945Z,98.00
2023-03-08T06:47:36.913Z,97.70
2023-03-08T06:50:03.923Z,97.50
2023-03-08T06:52:37.478Z,97.30
2023-03-08T06:55:05.416Z,97.20
2023-03-08T06:57:32.288Z,97.30
2023-03-08T06:59:59.040Z,96.70
2023-03-08T07:02:25.794Z,96.80
2023-03-08T07:04:52.620Z,96.60
2023-03-08T07:07:19.461Z,96.50
2023-03-08T07:09:46.339Z,96.50
2023-03-08T07:12:13.225Z,96.60
2023-03-08T07:14:40.305Z,96.50
2023-03-08T07:17:07.081Z,96.30
2023-03-08T07:19:33.890Z,96.10
2023-03-08T07:22:00.640Z,95.90
2023-03-08T07:24:27.463Z,95.40
2023-03-08T07:26:54.249Z,95.60
2023-03-08T07:29:21.079Z,95.80
2023-03-08T07:31:47.881Z,95.90
2023-03-08T07:34:14.652Z,95.30
2023-03-08T07:36:41.476Z,95.30
2023-03-08T07:39:08.203Z,95.20
2023-03-08T07:41:35.693Z,95.20
2023-03-08T07:44:02.584Z,94.90
2023-03-08T07:46:29.908Z,94.50
2023-03-08T07:48:56.891Z,93.70
2023-03-08T07:51:24.098Z,93.20
2023-03-08T07:53:52.171Z,93.60
2023-03-08T07:56:19.118Z,93.10
2023-03-08T07:58:46.163Z,93.30
2023-03-08T08:01:14.363Z,93.10
2023-03-08T08:03:41.271Z,93.00
2023-03-08T08:06:08.572Z,92.90
2023-03-08T08:08:35.664Z,93.50
2023-03-08T08:11:02.501Z,93.90
2023-03-08T08:13:29.268Z,93.30
2023-03-08T08:16:03.233Z,93.00
2023-03-08T08:18:30.075Z,91.40
2023-03-08T08:21:04.599Z,90.90
2023-03-08T08:23:32.122Z,91.10
2023-03-08T08:25:59.240Z,90.10
2023-03-08T08:28:27.135Z,88.70
2023-03-08T08:31:12.493Z,88.70
2023-03-08T08:33:40.600Z,89.20
2023-03-08T08:36:11.032Z,89.30
2023-03-08T08:38:37.994Z,88.60
2023-03-08T08:41:06.751Z,88.40
2023-03-08T08:43:35.597Z,86.90
2023-03-08T08:46:04.156Z,86.00
2023-03-08T08:48:33.221Z,84.70
2023-03-08T08:51:01.037Z,84.20
2023-03-08T08:53:28.387Z,82.80
2023-03-08T08:55:55.214Z,81.90
2023-03-08T08:58:22.122Z,81.70
2023-03-08T09:00:48.956Z,81.90
2023-03-08T09:03:18.662Z,81.20
2023-03-08T09:05:45.534Z,81.10
2023-03-08T09:08:13.084Z,81.20
2023-03-08T09:10:41.356Z,81.10
2023-03-08T09:13:08.368Z,81.10
2023-03-08T09:15:37.179Z,81.90
2023-03-08T09:18:04.348Z,80.70
2023-03-08T09:20:31.137Z,79.00
2023-03-08T09:22:58.162Z,75.60
2023-03-08T09:25:25.001Z,74.10
2023-03-08T09:27:51.816Z,73.60
2023-03-08T09:30:18.870Z,73.10
2023-03-08T09:32:45.826Z,73.20
2023-03-08T09:35:12.774Z,75.30
2023-03-08T09:37:39.583Z,73.90
2023-03-08T09:40:10.228Z,74.30
2023-03-08T09:42:38.317Z,74.80
2023-03-08T09:45:23.486Z,73.80
2023-03-08T09:48:06.879Z,75.00
2023-03-08T09:50:40.157Z,74.60
2023-03-08T09:53:21.155Z,74.30
2023-03-08T09:56:13.391Z,74.60
2023-03-08T09:58:50.432Z,74.90
2023-03-08T10:01:32.286Z,76.80
2023-03-08T10:04:05.390Z,75.80
2023-03-08T10:06:50.198Z,76.40
2023-03-08T10:09:34.486Z,77.40
2023-03-08T10:12:13.674Z,77.40
2023-03-08T10:14:44.934Z,77.40
2023-03-08T10:17:40.545Z,77.30
2023-03-08T10:20:37.856Z,77.10
2023-03-08T10:23:14.043Z,78.50
2023-03-08T10:25:40.851Z,78.20
2023-03-08T10:28:20.856Z,79.20
2023-03-08T10:30:56.225Z,78.60
2023-03-08T10:33:24.635Z,78.00
2023-03-08T10:36:21.949Z,77.60
2023-03-08T10:39:09.379Z,78.00
2023-03-08T10:41:55.953Z,78.20
2023-03-08T10:44:33.616Z,76.30
2023-03-08T10:47:04.889Z,75.80
2023-03-08T10:49:32.020Z,75.50
2023-03-08T10:52:01.189Z,75.20
2023-03-08T10:54:29.778Z,75.90
2023-03-08T10:56:59.926Z,77.40
2023-03-08T10:59:32.614Z,75.70
2023-03-08T11:02:14.444Z,75.90
2023-03-08T11:04:55.328Z,75.90
2023-03-08T11:07:31.262Z,75.40
2023-03-08T11:10:13.339Z,75.70
2023-03-08T11:12:40.386Z,74.20
2023-03-08T11:15:17.235Z,73.00
2023-03-08T11:18:07.011Z,72.60
2023-03-08T11:20:42.683Z,72.60
2023-03-08T11:23:26.539Z,73.50
2023-03-08T11:26:23.457Z,71.00
2023-03-08T11:29:12.707Z,71.40
2023-03-08T11:32:29.589Z,71.70
2023-03-08T11:35:05.348Z,72.20
2023-03-08T11:37:38.387Z,69.50
2023-03-08T11:40:18.325Z,69.20
2023-03-08T11:43:17.281Z,68.30
2023-03-08T11:45:58.663Z,65.90
2023-03-08T11:48:34.761Z,66.70
2023-03-08T11:51:42.434Z,67.90
2023-03-08T11:54:27.562Z,68.20
2023-03-08T11:57:03.120Z,69.50
2023-03-08T11:59:38.856Z,70.10
2023-03-08T12:02:10.292Z,70.50
2023-03-08T12:05:03.959Z,71.10
2023-03-08T12:07:43.027Z,70.90
2023-03-08T12:10:26.937Z,69.90
2023-03-08T12:13:01.595Z,68.60
2023-03-08T12:15:33.744Z,68.60
2023-03-08T12:18:11.261Z,69.40
2023-03-08T12:20:42.197Z,70.60
2023-03-08T12:23:14.062Z,69.50
2023-03-08T12:25:45.125Z,69.40
2023-03-08T12:28:26.529Z,68.50
2023-03-08T12:31:26.462Z,68.70
2023-03-08T12:33:54.890Z,69.40
2023-03-08T12:36:22.678Z,68.50
2023-03-08T12:38:56.535Z,68.30
2023-03-08T12:41:27.192Z,68.90
2023-03-08T12:44:05.272Z,69.50
2023-03-08T12:47:02.393Z,70.50
2023-03-08T12:49:39.598Z,71.50
2023-03-08T12:52:18.425Z,72.00
2023-03-08T12:54:57.589Z,72.20
2023-03-08T12:57:32.885Z,70.80
2023-03-08T13:00:10.490Z,70.40
2023-03-08T13:02:37.394Z,70.00
2023-03-08T13:05:19.557Z,69.70
2023-03-08T13:08:12.366Z,68.50
2023-03-08T13:10:41.788Z,69.00
2023-03-08T13:13:20.555Z,68.80
2023-03-08T13:16:28.916Z,69.80
2023-03-08T13:19:16.979Z,67.60
2023-03-08T13:22:09.736Z,68.50
2023-03-08T13:24:48.811Z,68.60
2023-03-08T13:27:21.664Z,69.10
2023-03-08T13:29:49.014Z,69.00
2023-03-08T13:32:19.360Z,69.10
2023-03-08T13:35:02.018Z,69.80
2023-03-08T13:37:30.163Z,68.60
2023-03-08T13:39:59.434Z,69.10
2023-03-08T13:42:31.794Z,69.10
2023-03-08T13:45:16.108Z,68.20
2023-03-08T13:47:45.970Z,69.20
2023-03-08T13:50:42.124Z,68.80
2023-03-08T13:53:22.245Z,69.70
2023-03-08T13:55:52.968Z,69.50
2023-03-08T13:58:31.580Z,68.70
2023-03-08T14:01:01.942Z,67.90
2023-03-08T14:03:31.971Z,67.50
2023-03-08T14:05:59.002Z,68.20
2023-03-08T14:08:27.414Z,67.30
2023-03-08T14:11:03.274Z,67.50
2023-03-08T14:13:34.136Z,68.20
2023-03-08T14:16:04.000Z,67.50
2023-03-08T14:18:39.247Z,67.80
2023-03-08T14:21:06.147Z,66.90
2023-03-08T14:23:40.959Z,67.70
2023-03-08T14:26:24.812Z,65.70
2023-03-08T14:29:22.428Z,67.40
2023-03-08T14:32:13.154Z,68.10
2023-03-08T14:34:45.970Z,67.80
2023-03-08T14:37:12.747Z,67.40
2023-03-08T14:40:14.393Z,67.40
2023-03-08T14:42:45.633Z,68.00
2023-03-08T14:45:37.010Z,67.50
2023-03-08T14:48:25.674Z,68.40
2023-03-08T14:50:58.260Z,66.70
2023-03-08T14:53:29.324Z,67.60
2023-03-08T14:55:57.706Z,67.20
2023-03-08T14:58:28.722Z,66.20
2023-03-08T15:00:57.700Z,66.20
2023-03-08T15:03:25.208Z,66.00
2023-03-08T15:05:53.624Z,65.60
2023-03-08T15:08:21.062Z,64.50
2023-03-08T15:10:49.126Z,65.00
2023-03-08T15:13:21.462Z,65.30
2023-03-08T15:15:48.926Z,67.30
2023-03-08T15:18:16.319Z,65.90
2023-03-08T15:20:49.270Z,65.70
2023-03-08T15:23:27.889Z,66.60
2023-03-08T15:25:54.952Z,67.00
2023-03-08T15:28:23.571Z,67.40
2023-03-08T15:30:52.818Z,67.10
2023-03-08T15:33:20.067Z,67.30
2023-03-08T15:35:48.240Z,67.80
2023-03-08T15:38:16.723Z,69.20
2023-03-08T15:40:43.889Z,70.10
2023-03-08T15:43:11.147Z,70.70
2023-03-08T15:45:38.084Z,71.20
2023-03-08T15:48:06.329Z,71.50
2023-03-08T15:50:34.701Z,72.30
2023-03-08T15:53:01.527Z,72.40
2023-03-08T15:55:29.951Z,72.50
2023-03-08T15:57:57.948Z,73.40
2023-03-08T16:00:25.988Z,73.40
2023-03-08T16:02:53.691Z,73.80
2023-03-08T16:05:23.369Z,75.00
2023-03-08T16:07:59.813Z,74.20
2023-03-08T16:10:28.787Z,74.90
2023-03-08T16:12:55.716Z,75.20
2023-03-08T16:15:22.953Z,75.10
2023-03-08T16:17:49.816Z,75.00
2023-03-08T16:20:17.136Z,75.30
2023-03-08T16:22:45.529Z,75.50
2023-03-08T16:25:12.304Z,75.80
2023-03-08T16:27:39.055Z,76.50
2023-03-08T16:30:06.625Z,77.00
2023-03-08T16:32:33.503Z,76.80
2023-03-08T16:35:00.981Z,77.30
2023-03-08T16:37:28.351Z,77.70
2023-03-08T16:39:57.442Z,77.70
2023-03-08T16:42:24.608Z,78.10
2023-03-08T16:44:53.407Z,78.30
2023-03-08T16:47:22.059Z,78.70
2023-03-08T16:49:49.134Z,79.10
2023-03-08T16:52:17.071Z,79.20
2023-03-08T16:54:44.373Z,79.60
2023-03-08T16:57:19.098Z,79.60
2023-03-08T16:59:47.381Z,79.70
2023-03-08T17:02:19.719Z,80.00
2023-03-08T17:04:47.667Z,80.10
2023-03-08T17:07:15.238Z,80.30
2023-03-08T17:09:42.095Z,80.60
2023-03-08T17:12:09.666Z,80.60
2023-03-08T17:14:37.047Z,80.90
2023-03-08T17:17:04.847Z,81.40
2023-03-08T17:19:31.612Z,81.30
2023-03-08T17:21:58.494Z,81.60
2023-03-08T17:24:27.928Z,82.20
2023-03-08T17:26:55.385Z,82.40
2023-03-08T17:29:22.859Z,82.70
2023-03-08T17:31:50.184Z,83.20
2023-03-08T17:34:17.900Z,83.40
2023-03-08T17:36:46.703Z,83.40
2023-03-08T17:39:14.299Z,83.70
2023-03-08T17:41:41.467Z,84.10
2023-03-08T17:44:08.476Z,84.30
2023-03-08T17:46:35.325Z,84.60
2023-03-08T17:49:25.026Z,84.80
2023-03-08T17:51:53.049Z,84.90
2023-03-08T17:54:20.678Z,85.20
2023-03-08T17:56:47.774Z,85.20
2023-03-08T17:59:16.414Z,85.30
2023-03-08T18:01:43.734Z,85.40
2023-03-08T18:04:10.564Z,85.30
2023-03-08T18:06:39.944Z,85.50
2023-03-08T18:09:10.253Z,85.30
2023-03-08T18:11:41.157Z,85.50
2023-03-08T18:14:10.898Z,85.50
2023-03-08T18:16:38.769Z,85.70
2023-03-08T18:19:06.538Z,86.00
2023-03-08T18:21:35.372Z,85.90
2023-03-08T18:24:02.781Z,86.10
2023-03-08T18:26:29.584Z,86.40
2023-03-08T18:28:56.333Z,86.40
2023-03-08T18:31:26.139Z,86.50
2023-03-08T18:33:54.978Z,86.50
2023-03-08T18:36:22.378Z,87.00
2023-03-08T18:38:49.384Z,87.10
2023-03-08T18:41:28.052Z,87.30
2023-03-08T18:43:55.685Z,87.70
2023-03-08T18:46:28.742Z,87.80
2023-03-08T18:49:01.307Z,88.10
2023-03-08T18:51:29.444Z,88.40
2023-03-08T18:53:57.539Z,88.70
2023-03-08T18:56:25.958Z,88.80
2023-03-08T18:58:54.186Z,88.80
2023-03-08T19:01:21.877Z,89.20
2023-03-08T19:03:48.638Z,89.30
2023-03-08T19:06:15.443Z,89.60
2023-03-08T19:08:42.589Z,90.00
2023-03-08T19:11:21.976Z,90.10
2023-03-08T19:13:49.624Z,90.20
2023-03-08T19:16:22.369Z,90.40
2023-03-08T19:18:52.028Z,90.50
2023-03-08T19:21:21.564Z,90.80
2023-03-08T19:23:48.879Z,91.00
2023-03-08T19:26:36.704Z,90.90
2023-03-08T19:29:08.547Z,91.10
2023-03-08T19:31:38.103Z,91.20
2023-03-08T19:34:05.364Z,91.40
2023-03-08T19:36:34.183Z,91.80
2023-03-08T19:39:01.336Z,91.90
2023-03-08T19:41:28.128Z,92.00
2023-03-08T19:43:54.893Z,92.10
2023-03-08T19:46:21.779Z,92.40
2023-03-08T19:48:49.033Z,92.30
2023-03-08T19:51:17.855Z,92.70
2023-03-08T19:53:50.662Z,92.90
2023-03-08T19:56:20.190Z,93.00
2023-03-08T19:58:48.498Z,93.20
2023-03-08T20:03:53.203Z,93.30
2023-03-08T20:06:53.055Z,93.80
2023-03-08T20:09:24.068Z,94.10
2023-03-08T20:11:53.274Z,94.40
2023-03-08T20:14:20.799Z,94.40
2023-03-08T20:16:48.143Z,94.30
2023-03-08T20:19:15.052Z,94.50
2023-03-08T20:21:41.991Z,94.70
2023-03-08T20:24:09.048Z,94.70
2023-03-08T20:26:37.677Z,94.70
2023-03-08T20:29:05.457Z,95.10
2023-03-08T20:31:33.128Z,95.10
2023-03-08T20:34:00.369Z,95.40
2023-03-08T20:36:28.848Z,95.60
2023-03-08T20:38:56.945Z,95.70
2023-03-08T20:41:23.832Z,95.70
2023-03-08T20:43:52.289Z,95.60
2023-03-08T20:46:20.881Z,95.90
2023-03-08T20:48:47.738Z,95.60
2023-03-08T20:51:18.433Z,96.00
2023-03-08T20:53:48.388Z,96.30
2023-03-08T20:56:17.220Z,96.30
2023-03-08T20:58:44.077Z,96.20
2023-03-08T21:01:19.554Z,96.40
2023-03-08T21:03:47.849Z,96.40
2023-03-08T21:06:18.808Z,96.50
2023-03-08T21:08:46.514Z,96.70
2023-03-08T21:11:13.714Z,96.40
2023-03-08T21:13:40.966Z,96.40
2023-03-08T21:16:11.619Z,96.60
2023-03-08T21:18:38.699Z,96.50
2023-03-08T21:21:05.654Z,96.40
2023-03-08T21:23:32.470Z,96.60
2023-03-08T21:26:01.004Z,96.70
2023-03-08T21:28:27.856Z,96.60
2023-03-08T21:30:54.758Z,96.60
2023-03-08T21:33:21.589Z,96.70
2023-03-08T21:35:48.433Z,96.70
2023-03-08T21:38:15.275Z,96.70
2023-03-08T21:40:42.980Z,96.60
2023-03-08T21:43:10.034Z,96.60
2023-03-08T21:45:41.705Z,96.80
2023-03-08T21:48:09.362Z,96.70
2023-03-08T21:50:39.892Z,96.70
2023-03-08T21:53:07.761Z,96.60
2023-03-08T21:55:34.694Z,96.80
2023-03-08T21:58:01.468Z,96.70
2023-03-08T22:00:28.359Z,96.60
2023-03-08T22:02:55.235Z,96.40
2023-03-08T22:05:22.219Z,96.60
2023-03-08T22:07:48.968Z,96.60
2023-03-08T22:10:18.280Z,96.90
2023-03-08T22:12:47.248Z,96.80
2023-03-08T22:15:15.733Z,96.70
2023-03-08T22:17:43.146Z,96.50
2023-03-08T22:20:10.949Z,96.50
2023-03-08T22:22:38.789Z,96.60
2023-03-08T22:25:06.703Z,96.70
2023-03-08T22:27:33.708Z,97.10
2023-03-08T22:30:00.547Z,97.40
2023-03-08T22:32:27.377Z,97.40
2023-03-08T22:34:54.227Z,97.30
2023-03-08T22:37:21.081Z,97.40
2023-03-08T22:39:47.887Z,97.20
2023-03-08T22:42:16.555Z,97.50
2023-03-08T22:44:43.617Z,97.60
2023-03-08T22:47:10.424Z,97.40
2023-03-08T22:49:37.221Z,97.40
2023-03-08T22:52:04.741Z,97.40
2023-03-08T22:54:31.682Z,97.40
2023-03-08T22:56:58.780Z,97.30
2023-03-08T22:59:25.769Z,97.30
2023-03-08T23:01:53.645Z,97.10
2023-03-08T23:04:21.119Z,97.10
2023-03-08T23:06:48.206Z,97.20
2023-03-08T23:09:17.038Z,97.40
2023-03-08T23:11:44.610Z,97.60
2023-03-08T23:14:12.280Z,97.50
2023-03-08T23:16:44.971Z,97.30
2023-03-08T23:19:18.588Z,97.60
2023-03-08T23:21:45.671Z,97.70
2023-03-08T23:24:12.985Z,97.80
2023-03-08T23:26:39.912Z,97.60
2023-03-08T23:29:07.280Z,97.70
2023-03-08T23:31:36.210Z,97.60
2023-03-08T23:34:07.499Z,97.60
2023-03-08T23:36:40.391Z,97.50
2023-03-08T23:39:07.303Z,97.30
2023-03-08T23:41:34.130Z,97.30
2023-03-08T23:44:01.589Z,97.30
2023-03-08T23:46:29.544Z,97.40
2023-03-08T23:48:58.667Z,97.30
2023-03-08T23:51:27.297Z,97.40
2023-03-08T23:53:56.945Z,97.30
2023-03-08T23:56:31.059Z,97.30
2023-03-08T23:59:01.390Z,97.20
